createdAt,value
2022-08-07T00:02:37.292Z,7.60
2022-08-07T00:04:16.365Z,7.30
2022-08-07T00:06:51.944Z,7.30
2022-08-07T00:09:29.126Z,7.90
2022-08-07T00:12:03.220Z,7.90
2022-08-07T00:14:32.185Z,7.50
2022-08-07T00:17:03.032Z,8.40
2022-08-07T00:19:59.594Z,7.70
2022-08-07T00:22:24.729Z,7.30
2022-08-07T00:25:11.122Z,7.80
2022-08-07T00:27:53.142Z,7.30
2022-08-07T00:30:28.207Z,8.80
2022-08-07T00:32:59.311Z,7.80
2022-08-07T00:35:29.910Z,7.80
2022-08-07T00:38:00.022Z,8.70
2022-08-07T00:40:39.193Z,7.80
2022-08-07T00:44:00.694Z,7.70
2022-08-07T00:46:02.899Z,7.80
2022-08-07T00:48:32.387Z,8.40
2022-08-07T00:51:03.149Z,8.30
2022-08-07T00:53:39.075Z,8.20
2022-08-07T00:56:19.456Z,8.60
2022-08-07T00:58:49.929Z,8.30
2022-08-07T01:01:20.736Z,8.70
2022-08-07T01:03:57.060Z,7.90
2022-08-07T01:06:29.671Z,8.60
2022-08-07T01:09:01.282Z,8.10
2022-08-07T01:12:08.980Z,8.00
2022-08-07T01:14:28.462Z,7.90
2022-08-07T01:16:58.699Z,7.50
2022-08-07T01:19:32.169Z,7.80
2022-08-07T01:22:03.415Z,7.70
2022-08-07T01:24:42.199Z,8.00
2022-08-07T01:27:29.503Z,8.60
2022-08-07T01:30:02.502Z,8.50
2022-08-07T01:32:32.284Z,7.80
2022-08-07T01:35:03.171Z,8.70
2022-08-07T01:37:34.027Z,8.90
2022-08-07T01:40:07.117Z,8.00
2022-08-07T01:42:57.422Z,8.10
2022-08-07T01:45:37.098Z,7.90
2022-08-07T01:48:20.015Z,7.90
2022-08-07T01:51:24.483Z,7.80
2022-08-07T01:54:09.533Z,9.10
2022-08-07T01:58:01.324Z,9.20
2022-08-07T02:00:28.911Z,7.60
2022-08-07T02:03:12.519Z,8.60
2022-08-07T02:05:59.615Z,7.90
2022-08-07T02:08:38.236Z,8.60
2022-08-07T02:11:10.634Z,8.80
2022-08-07T02:14:03.044Z,8.60
2022-08-07T02:16:37.585Z,8.30
2022-08-07T02:20:04.298Z,7.60
2022-08-07T02:22:02.742Z,9.50
2022-08-07T02:24:32.099Z,8.20
2022-08-07T02:27:03.453Z,8.70
2022-08-07T02:29:43.531Z,9.40
2022-08-07T02:32:23.432Z,7.90
2022-08-07T02:34:58.507Z,8.50
2022-08-07T02:37:36.155Z,8.30
2022-08-07T02:40:30.659Z,8.60
2022-08-07T02:43:07.935Z,8.00
2022-08-07T02:45:58.876Z,8.00
2022-08-07T02:48:31.591Z,7.90
2022-08-07T02:51:29.005Z,7.70
2022-08-07T02:54:00.507Z,7.90
2022-08-07T02:56:33.488Z,8.40
2022-08-07T02:59:06.015Z,9.20
2022-08-07T03:01:40.032Z,8.30
2022-08-07T03:04:16.489Z,7.60
2022-08-07T03:06:48.157Z,8.20
2022-08-07T03:09:43.268Z,8.00
2022-08-07T03:12:11.580Z,7.90
2022-08-07T03:14:52.822Z,7.80
2022-08-07T03:17:22.250Z,7.50
2022-08-07T03:19:56.535Z,7.80
2022-08-07T03:22:30.464Z,7.70
2022-08-07T03:25:01.699Z,8.20
2022-08-07T03:28:09.034Z,8.70
2022-08-07T03:30:27.228Z,8.40
2022-08-07T03:32:59.566Z,8.30
2022-08-07T03:35:43.899Z,8.30
2022-08-07T03:38:29.927Z,7.70
2022-08-07T03:41:03.456Z,8.10
2022-08-07T03:43:33.672Z,8.00
2022-08-07T03:46:10.404Z,8.30
2022-08-07T03:49:02.903Z,8.00
2022-08-07T03:51:47.746Z,8.70
2022-08-07T03:54:36.279Z,8.00
2022-08-07T03:58:32.483Z,8.80
2022-08-07T04:00:04.411Z,8.50
2022-08-07T04:02:47.494Z,8.80
2022-08-07T04:05:40.800Z,8.80
2022-08-07T04:08:21.095Z,8.60
2022-08-07T04:10:54.741Z,8.80
2022-08-07T04:14:10.457Z,8.20
2022-08-07T04:16:37.459Z,9.50
2022-08-07T04:19:12.623Z,9.10
2022-08-07T04:21:47.925Z,9.80
2022-08-07T04:24:34.230Z,10.00
2022-08-07T04:27:20.266Z,9.00
2022-08-07T04:32:36.891Z,9.10
2022-08-07T04:35:11.198Z,9.50
2022-08-07T04:38:01.117Z,9.20
2022-08-07T04:40:32.150Z,9.60
2022-08-07T04:43:03.577Z,9.40
2022-08-07T04:46:00.264Z,9.00
2022-08-07T04:49:01.657Z,8.50
2022-08-07T04:51:52.931Z,9.50
2022-08-07T04:54:32.135Z,9.20
2022-08-07T04:58:25.649Z,9.10
2022-08-07T05:00:32.257Z,8.00
2022-08-07T05:04:00.606Z,8.40
2022-08-07T05:06:51.237Z,9.00
2022-08-07T05:09:45.360Z,9.40
2022-08-07T05:12:30.351Z,9.00
2022-08-07T05:15:23.223Z,9.40
2022-08-07T05:18:08.501Z,9.00
2022-08-07T05:20:44.023Z,9.80
2022-08-07T05:23:29.096Z,9.20
2022-08-07T05:26:13.201Z,9.00
2022-08-07T05:28:53.376Z,8.80
2022-08-07T05:31:38.491Z,8.30
2022-08-07T05:34:13.819Z,9.00
2022-08-07T05:36:54.643Z,8.90
2022-08-07T05:40:16.880Z,8.80
2022-08-07T05:42:34.492Z,10.40
2022-08-07T05:45:14.159Z,9.60
2022-08-07T05:48:01.570Z,9.70
2022-08-07T05:50:39.333Z,8.50
2022-08-07T05:54:12.941Z,10.20
2022-08-07T05:56:06.096Z,9.30
2022-08-07T05:58:41.692Z,9.50
2022-08-07T06:01:26.536Z,9.70
2022-08-07T06:04:08.865Z,9.90
2022-08-07T06:06:46.042Z,10.20
2022-08-07T06:09:17.646Z,9.10
2022-08-07T06:11:49.092Z,9.60
2022-08-07T06:14:20.705Z,10.80
2022-08-07T06:16:55.811Z,10.50
2022-08-07T06:19:52.298Z,8.60
2022-08-07T06:22:23.856Z,9.30
2022-08-07T06:25:06.185Z,9.80
2022-08-07T06:27:59.768Z,9.40
2022-08-07T06:30:35.710Z,10.10
2022-08-07T06:33:16.209Z,9.30
2022-08-07T06:36:12.815Z,9.70
2022-08-07T06:38:58.716Z,9.00
2022-08-07T06:42:01.094Z,8.70
2022-08-07T06:44:40.991Z,10.20
2022-08-07T06:47:15.268Z,9.00
2022-08-07T06:49:51.794Z,10.60
2022-08-07T06:52:35.597Z,10.90
2022-08-07T06:55:33.772Z,10.60
2022-08-07T06:58:04.916Z,11.30
2022-08-07T07:00:44.727Z,11.80
2022-08-07T07:03:14.520Z,11.50
2022-08-07T07:06:04.669Z,11.80
2022-08-07T07:08:39.829Z,11.40
2022-08-07T07:12:06.882Z,11.30
2022-08-07T07:14:08.466Z,10.10
2022-08-07T07:16:49.637Z,12.40
2022-08-07T07:19:56.198Z,12.00
2022-08-07T07:22:36.139Z,11.30
2022-08-07T07:26:32.254Z,10.90
2022-08-07T07:28:42.775Z,10.40
2022-08-07T07:31:39.888Z,10.60
2022-08-07T07:34:20.085Z,10.60
2022-08-07T07:36:53.845Z,10.90
2022-08-07T07:39:25.762Z,11.10
2022-08-07T07:42:17.651Z,10.80
2022-08-07T07:44:53.616Z,11.20
2022-08-07T07:47:28.774Z,10.30
2022-08-07T07:50:33.285Z,10.10
2022-08-07T07:52:50.209Z,9.60
2022-08-07T07:55:21.554Z,8.00
2022-08-07T07:57:58.191Z,8.20
2022-08-07T08:00:34.050Z,8.70
2022-08-07T08:03:16.876Z,8.40
2022-08-07T08:06:03.463Z,9.40
2022-08-07T08:08:37.108Z,8.40
2022-08-07T08:11:16.489Z,9.00
2022-08-07T08:13:54.365Z,7.30
2022-08-07T08:16:39.493Z,7.30
2022-08-07T08:20:16.091Z,7.30
2022-08-07T08:22:32.727Z,6.90
2022-08-07T08:25:41.805Z,6.60
2022-08-07T08:28:24.120Z,6.90
2022-08-07T08:31:15.885Z,6.60
2022-08-07T08:33:55.523Z,7.40
2022-08-07T08:36:30.879Z,7.40
2022-08-07T08:39:05.450Z,7.20
2022-08-07T08:41:58.965Z,6.50
2022-08-07T08:44:48.119Z,6.40
2022-08-07T08:47:52.733Z,7.10
2022-08-07T08:50:39.640Z,5.70
2022-08-07T08:53:29.461Z,5.90
2022-08-07T08:56:10.759Z,6.30
2022-08-07T08:58:58.104Z,5.00
2022-08-07T09:01:43.671Z,7.30
2022-08-07T09:04:58.447Z,7.10
2022-08-07T09:07:57.497Z,7.70
2022-08-07T09:10:44.248Z,7.60
2022-08-07T09:13:43.936Z,6.90
2022-08-07T09:16:49.017Z,6.90
2022-08-07T09:19:59.319Z,6.20
2022-08-07T09:24:32.048Z,7.30
2022-08-07T09:26:39.732Z,6.70
2022-08-07T09:30:03.471Z,7.10
2022-08-07T09:33:05.652Z,6.80
2022-08-07T09:36:06.359Z,6.70
2022-08-07T09:39:11.412Z,7.40
2022-08-07T09:42:23.057Z,7.00
2022-08-07T09:47:27.561Z,6.60
2022-08-07T09:48:30.053Z,7.50
2022-08-07T09:52:09.953Z,7.20
2022-08-07T09:54:29.294Z,6.80
2022-08-07T09:57:28.103Z,8.00
2022-08-07T10:00:14.778Z,8.20
2022-08-07T10:03:08.266Z,7.10
2022-08-07T10:06:09.020Z,6.60
2022-08-07T10:09:34.194Z,6.80
2022-08-07T10:12:26.358Z,6.00
2022-08-07T10:15:44.090Z,5.50
2022-08-07T10:18:42.371Z,5.60
2022-08-07T10:22:14.650Z,5.10
2022-08-07T10:25:04.300Z,5.00
2022-08-07T10:27:57.190Z,3.90
2022-08-07T10:30:43.884Z,4.90
2022-08-07T10:34:06.172Z,4.50
2022-08-07T10:37:26.518Z,4.40
2022-08-07T10:40:23.796Z,4.50
2022-08-07T10:43:34.675Z,3.90
2022-08-07T10:46:36.374Z,4.20
2022-08-07T10:49:49.815Z,4.20
2022-08-07T10:52:53.410Z,3.90
2022-08-07T10:55:38.538Z,3.00
2022-08-07T10:58:59.890Z,4.40
2022-08-07T11:01:51.897Z,3.60
2022-08-07T11:05:10.540Z,3.90
2022-08-07T11:08:08.720Z,3.90
2022-08-07T11:11:06.164Z,3.30
2022-08-07T11:14:46.080Z,4.20
2022-08-07T11:16:54.660Z,2.90
2022-08-07T11:20:05.040Z,3.60
2022-08-07T11:22:51.106Z,3.20
2022-08-07T11:25:36.249Z,3.40
2022-08-07T11:28:27.004Z,3.50
2022-08-07T11:31:27.081Z,3.70
2022-08-07T11:34:10.267Z,3.10
2022-08-07T11:37:24.338Z,3.30
2022-08-07T11:40:14.915Z,3.20
2022-08-07T11:43:54.524Z,3.50
2022-08-07T11:47:13.902Z,2.80
2022-08-07T11:50:31.508Z,2.60
2022-08-07T11:53:05.142Z,3.30
2022-08-07T11:56:25.959Z,3.10
2022-08-07T11:59:22.216Z,3.10
2022-08-07T12:02:30.457Z,3.30
2022-08-07T12:05:49.582Z,2.80
2022-08-07T12:08:38.296Z,3.50
2022-08-07T12:11:22.424Z,2.90
2022-08-07T12:13:53.587Z,3.70
2022-08-07T12:16:30.849Z,3.40
2022-08-07T12:19:35.632Z,3.70
2022-08-07T12:22:39.415Z,3.50
2022-08-07T12:26:21.687Z,3.70
2022-08-07T12:29:38.032Z,3.80
2022-08-07T12:32:38.642Z,3.70
2022-08-07T12:35:13.840Z,3.90
2022-08-07T12:38:11.749Z,4.20
2022-08-07T12:40:48.592Z,4.20
2022-08-07T12:44:01.850Z,3.90
2022-08-07T12:46:47.788Z,3.80
2022-08-07T12:49:51.199Z,3.30
2022-08-07T12:52:35.611Z,3.30
2022-08-07T12:55:17.897Z,3.30
2022-08-07T12:58:00.854Z,2.70
2022-08-07T13:01:28.207Z,3.10
2022-08-07T13:04:32.647Z,2.60
2022-08-07T13:10:40.868Z,3.00
2022-08-07T13:13:48.443Z,3.10
2022-08-07T13:16:23.552Z,2.60
2022-08-07T13:19:45.896Z,3.10
2022-08-07T13:22:32.396Z,3.40
2022-08-07T13:25:05.963Z,2.50
2022-08-07T13:28:11.127Z,2.60
2022-08-07T13:30:52.351Z,2.60
2022-08-07T13:34:31.829Z,2.60
2022-08-07T13:36:45.509Z,2.40
2022-08-07T13:40:35.265Z,2.60
2022-08-07T13:42:51.560Z,2.30
2022-08-07T13:46:11.226Z,2.50
2022-08-07T13:48:27.779Z,2.30
2022-08-07T13:51:27.705Z,2.50
2022-08-07T13:54:01.478Z,2.50
2022-08-07T13:56:35.459Z,2.70
2022-08-07T13:59:20.513Z,2.40
2022-08-07T14:02:13.419Z,3.00
2022-08-07T14:04:50.085Z,2.80
2022-08-07T14:07:23.965Z,2.70
2022-08-07T14:10:17.781Z,2.10
2022-08-07T14:13:03.743Z,2.90
2022-08-07T14:15:43.075Z,2.20
2022-08-07T14:18:28.393Z,2.40
2022-08-07T14:22:00.654Z,2.80
2022-08-07T14:24:24.534Z,3.00
2022-08-07T14:28:09.520Z,2.80
2022-08-07T14:30:11.967Z,2.70
2022-08-07T14:32:55.953Z,2.60
2022-08-07T14:35:45.124Z,2.70
2022-08-07T14:38:26.400Z,2.90
2022-08-07T14:41:04.350Z,2.60
2022-08-07T14:43:57.321Z,2.70
2022-08-07T14:46:31.961Z,2.30
2022-08-07T14:49:17.427Z,2.40
2022-08-07T14:52:02.954Z,2.50
2022-08-07T14:54:42.107Z,2.40
2022-08-07T14:57:58.167Z,2.00
2022-08-07T15:00:30.220Z,2.20
2022-08-07T15:03:16.566Z,2.60
2022-08-07T15:05:54.970Z,2.70
2022-08-07T15:08:50.328Z,2.30
2022-08-07T15:11:53.250Z,2.10
2022-08-07T15:14:30.699Z,2.20
2022-08-07T15:17:14.004Z,2.10
2022-08-07T15:20:33.339Z,1.90
2022-08-07T15:22:55.177Z,1.60
2022-08-07T15:25:36.987Z,1.90
2022-08-07T15:28:31.664Z,1.70
2022-08-07T15:31:07.481Z,1.90
2022-08-07T15:37:03.460Z,1.80
2022-08-07T15:39:25.693Z,2.70
2022-08-07T15:42:45.202Z,2.00
2022-08-07T15:44:53.418Z,1.60
2022-08-07T15:50:37.741Z,1.20
2022-08-07T15:53:14.793Z,1.50
2022-08-07T15:55:53.804Z,1.50
2022-08-07T15:58:54.070Z,1.90
2022-08-07T16:01:39.662Z,1.60
2022-08-07T16:04:15.060Z,1.40
2022-08-07T16:06:56.590Z,1.30
2022-08-07T16:09:53.985Z,1.30
2022-08-07T16:13:00.943Z,1.40
2022-08-07T16:15:58.177Z,1.60
2022-08-07T16:18:50.219Z,1.10
2022-08-07T16:22:03.481Z,1.00
2022-08-07T16:25:02.540Z,1.40
2022-08-07T16:28:09.365Z,1.20
2022-08-07T16:31:51.845Z,0.80
2022-08-07T16:34:48.383Z,1.00
2022-08-07T16:38:06.471Z,1.00
2022-08-07T16:41:08.270Z,1.10
2022-08-07T16:44:47.419Z,1.20
2022-08-07T16:48:13.574Z,1.00
2022-08-07T16:51:57.627Z,1.00
2022-08-07T16:54:55.116Z,1.10
2022-08-07T17:00:45.432Z,1.30
2022-08-07T17:03:47.333Z,1.60
2022-08-07T17:07:09.654Z,1.50
2022-08-07T17:12:53.020Z,1.50
2022-08-07T17:15:52.307Z,1.50
2022-08-07T17:18:41.002Z,1.50
2022-08-07T17:21:23.060Z,1.40
2022-08-07T17:24:04.336Z,1.80
2022-08-07T17:26:51.069Z,1.50
2022-08-07T17:30:15.157Z,1.80
2022-08-07T17:32:52.788Z,1.30
2022-08-07T17:36:13.648Z,1.50
2022-08-07T17:38:57.143Z,1.50
2022-08-07T17:42:04.316Z,2.00
2022-08-07T17:44:45.267Z,1.90
2022-08-07T17:47:43.687Z,1.90
2022-08-07T17:50:47.479Z,1.80
2022-08-07T17:54:02.171Z,2.00
2022-08-07T17:56:52.609Z,2.20
2022-08-07T17:59:42.385Z,2.30
2022-08-07T18:02:33.102Z,2.00
2022-08-07T18:05:21.193Z,1.80
2022-08-07T18:08:16.464Z,1.60
2022-08-07T18:12:06.698Z,2.00
2022-08-07T18:14:40.030Z,2.00
2022-08-07T18:18:47.501Z,1.60
2022-08-07T18:21:03.993Z,1.70
2022-08-07T18:23:57.112Z,2.10
2022-08-07T18:27:06.984Z,2.30
2022-08-07T18:30:31.440Z,2.00
2022-08-07T18:33:55.646Z,2.60
2022-08-07T18:37:13.730Z,2.00
2022-08-07T18:40:42.818Z,2.10
2022-08-07T18:43:48.997Z,1.50
2022-08-07T18:46:42.852Z,2.20
2022-08-07T18:50:35.236Z,2.90
2022-08-07T18:52:53.357Z,2.50
2022-08-07T18:55:57.879Z,2.00
2022-08-07T18:59:01.388Z,2.20
2022-08-07T19:02:18.708Z,2.30
2022-08-07T19:05:17.747Z,2.60
2022-08-07T19:08:06.402Z,3.00
2022-08-07T19:10:52.638Z,2.70
2022-08-07T19:13:46.287Z,2.50
2022-08-07T19:17:59.259Z,2.40
2022-08-07T19:20:29.763Z,2.90
2022-08-07T19:23:57.276Z,3.50
2022-08-07T19:26:29.087Z,3.20
2022-08-07T19:31:00.622Z,2.60
2022-08-07T19:34:57.356Z,3.10
2022-08-07T19:37:47.269Z,3.20
2022-08-07T19:40:31.571Z,3.00
2022-08-07T19:43:21.959Z,3.20
2022-08-07T19:46:09.351Z,3.30
2022-08-07T19:48:53.800Z,3.20
2022-08-07T19:51:51.946Z,3.80
2022-08-07T19:54:35.358Z,3.30
2022-08-07T19:58:01.223Z,2.80
2022-08-07T20:00:27.896Z,2.80
2022-08-07T20:08:30.242Z,3.10
2022-08-07T20:11:23.043Z,3.00
2022-08-07T20:14:05.069Z,2.30
2022-08-07T20:16:37.144Z,2.50
2022-08-07T20:19:10.061Z,2.70
2022-08-07T20:21:47.486Z,1.90
2022-08-07T20:24:31.761Z,2.20
2022-08-07T20:27:03.537Z,2.20
2022-08-07T20:29:48.312Z,2.20
2022-08-07T20:32:41.944Z,2.30
2022-08-07T20:35:25.314Z,1.80
2022-08-07T20:37:59.283Z,1.90
2022-08-07T20:40:34.676Z,2.90
2022-08-07T20:43:14.489Z,1.90
2022-08-07T20:46:29.880Z,1.90
2022-08-07T20:48:57.889Z,2.50
2022-08-07T20:51:35.892Z,2.20
2022-08-07T20:54:15.183Z,2.40
2022-08-07T20:57:04.054Z,2.40
2022-08-07T21:00:08.065Z,2.20
2022-08-07T21:02:53.904Z,2.20
2022-08-07T21:05:58.477Z,2.60
2022-08-07T21:08:40.710Z,2.40
2022-08-07T21:11:40.137Z,1.70
2022-08-07T21:14:34.197Z,2.40
2022-08-07T21:18:02.995Z,2.80
2022-08-07T21:20:06.330Z,2.60
2022-08-07T21:22:51.183Z,2.30
2022-08-07T21:25:56.182Z,2.20
2022-08-07T21:28:59.685Z,2.50
2022-08-07T21:31:49.589Z,2.40
2022-08-07T21:34:46.042Z,2.80
2022-08-07T21:37:57.850Z,3.10
2022-08-07T21:40:41.707Z,2.30
2022-08-07T21:43:47.417Z,2.30
2022-08-07T21:46:47.716Z,2.60
2022-08-07T21:49:40.790Z,2.70
2022-08-07T21:53:08.477Z,2.50
2022-08-07T21:56:16.668Z,2.60
2022-08-07T21:59:22.258Z,3.30
2022-08-07T22:02:11.246Z,3.10
2022-08-07T22:04:53.782Z,3.00
2022-08-07T22:07:35.583Z,2.70
2022-08-07T22:10:28.102Z,3.20
2022-08-07T22:13:09.410Z,2.70
2022-08-07T22:16:42.500Z,2.70
2022-08-07T22:19:29.224Z,2.60
2022-08-07T22:22:29.153Z,3.00
2022-08-07T22:25:49.473Z,2.80
2022-08-07T22:28:33.789Z,3.60
2022-08-07T22:31:59.391Z,3.00
2022-08-07T22:34:35.611Z,3.20
2022-08-07T22:38:01.813Z,2.80
2022-08-07T22:41:03.268Z,2.90
2022-08-07T22:43:57.564Z,3.30
2022-08-07T22:47:03.471Z,2.90
2022-08-07T22:49:51.906Z,3.30
2022-08-07T22:52:39.973Z,3.70
2022-08-07T22:55:30.111Z,3.10
2022-08-07T22:58:32.088Z,3.00
2022-08-07T23:01:49.921Z,3.50
2022-08-07T23:06:06.830Z,3.80
2022-08-07T23:08:30.058Z,3.60
2022-08-07T23:11:23.466Z,3.80
2022-08-07T23:14:19.740Z,3.50
2022-08-07T23:16:59.066Z,3.60
2022-08-07T23:20:07.633Z,3.80
2022-08-07T23:23:01.501Z,3.30
2022-08-07T23:25:56.684Z,3.30
2022-08-07T23:29:43.758Z,3.40
2022-08-07T23:34:34.504Z,3.80
2022-08-07T23:36:30.016Z,3.20
2022-08-07T23:39:16.337Z,4.10
2022-08-07T23:42:04.838Z,4.20
2022-08-07T23:46:01.407Z,3.70
2022-08-07T23:48:28.202Z,4.30
2022-08-07T23:52:58.928Z,4.00
2022-08-07T23:54:52.125Z,4.30
2022-08-07T23:57:44.802Z,4.10
